sensor_id;sensor_type;location;lat;lon;timestamp;P1;durP1;ratioP1;P2;durP2;ratioP2
21630;SDS011;10977;46.802;11.952;2022-12-07T00:01:30;13.73;;;9.52;;
21630;SDS011;10977;46.802;11.952;2022-12-07T00:03:57;20.27;;;10.20;;
21630;SDS011;10977;46.802;11.952;2022-12-07T00:06:34;15.65;;;9.55;;
21630;SDS011;10977;46.802;11.952;2022-12-07T00:09:05;11.45;;;8.18;;
21630;SDS011;10977;46.802;11.952;2022-12-07T00:11:32;17.53;;;8.57;;
21630;SDS011;10977;46.802;11.952;2022-12-07T00:13:58;14.80;;;8.10;;
21630;SDS011;10977;46.802;11.952;2022-12-07T00:16:27;11.38;;;7.65;;
21630;SDS011;10977;46.802;11.952;2022-12-07T00:18:54;10.82;;;7.75;;
21630;SDS011;10977;46.802;11.952;2022-12-07T00:21:21;9.88;;;6.82;;
21630;SDS011;10977;46.802;11.952;2022-12-07T00:23:48;11.68;;;7.68;;
21630;SDS011;10977;46.802;11.952;2022-12-07T00:26:16;9.38;;;7.18;;
21630;SDS011;10977;46.802;11.952;2022-12-07T00:28:50;14.70;;;8.47;;
21630;SDS011;10977;46.802;11.952;2022-12-07T00:31:17;11.63;;;7.27;;
21630;SDS011;10977;46.802;11.952;2022-12-07T00:33:44;12.03;;;7.87;;
21630;SDS011;10977;46.802;11.952;2022-12-07T00:36:11;10.23;;;8.18;;
21630;SDS011;10977;46.802;11.952;2022-12-07T00:38:39;11.93;;;8.10;;
21630;SDS011;10977;46.802;11.952;2022-12-07T00:41:07;16.83;;;8.45;;
21630;SDS011;10977;46.802;11.952;2022-12-07T00:43:44;10.80;;;7.88;;
21630;SDS011;10977;46.802;11.952;2022-12-07T00:46:11;11.52;;;7.80;;
21630;SDS011;10977;46.802;11.952;2022-12-07T00:48:37;16.52;;;8.43;;
21630;SDS011;10977;46.802;11.952;2022-12-07T00:51:03;48.80;;;8.13;;
21630;SDS011;10977;46.802;11.952;2022-12-07T00:53:30;12.35;;;7.55;;
21630;SDS011;10977;46.802;11.952;2022-12-07T00:55:56;10.00;;;6.72;;
21630;SDS011;10977;46.802;11.952;2022-12-07T00:58:22;8.88;;;7.00;;
21630;SDS011;10977;46.802;11.952;2022-12-07T01:00:48;11.77;;;7.30;;
21630;SDS011;10977;46.802;11.952;2022-12-07T01:03:15;11.57;;;7.17;;
21630;SDS011;10977;46.802;11.952;2022-12-07T01:05:48;11.10;;;8.43;;
21630;SDS011;10977;46.802;11.952;2022-12-07T01:08:15;11.82;;;7.72;;
21630;SDS011;10977;46.802;11.952;2022-12-07T01:10:40;11.93;;;7.60;;
21630;SDS011;10977;46.802;11.952;2022-12-07T01:13:06;8.77;;;6.57;;
21630;SDS011;10977;46.802;11.952;2022-12-07T01:15:31;35.77;;;7.80;;
21630;SDS011;10977;46.802;11.952;2022-12-07T01:17:56;17.50;;;8.37;;
21630;SDS011;10977;46.802;11.952;2022-12-07T01:20:22;13.47;;;8.40;;
21630;SDS011;10977;46.802;11.952;2022-12-07T01:22:47;12.10;;;7.05;;
21630;SDS011;10977;46.802;11.952;2022-12-07T01:25:12;32.35;;;9.10;;
21630;SDS011;10977;46.802;11.952;2022-12-07T01:27:38;13.50;;;8.40;;
21630;SDS011;10977;46.802;11.952;2022-12-07T01:30:04;26.73;;;9.67;;
21630;SDS011;10977;46.802;11.952;2022-12-07T01:32:31;47.85;;;26.33;;
21630;SDS011;10977;46.802;11.952;2022-12-07T01:34:57;35.73;;;15.93;;
21630;SDS011;10977;46.802;11.952;2022-12-07T01:37:22;15.20;;;9.47;;
21630;SDS011;10977;46.802;11.952;2022-12-07T01:39:49;41.92;;;8.52;;
21630;SDS011;10977;46.802;11.952;2022-12-07T01:42:15;45.42;;;8.77;;
21630;SDS011;10977;46.802;11.952;2022-12-07T01:47:43;35.10;;;9.07;;
21630;SDS011;10977;46.802;11.952;2022-12-07T01:50:13;14.23;;;7.90;;
21630;SDS011;10977;46.802;11.952;2022-12-07T01:52:38;15.93;;;8.27;;
21630;SDS011;10977;46.802;11.952;2022-12-07T01:55:07;12.63;;;8.00;;
21630;SDS011;10977;46.802;11.952;2022-12-07T01:57:39;13.97;;;7.80;;
21630;SDS011;10977;46.802;11.952;2022-12-07T02:00:07;11.50;;;6.63;;
21630;SDS011;10977;46.802;11.952;2022-12-07T02:02:34;14.90;;;7.80;;
21630;SDS011;10977;46.802;11.952;2022-12-07T02:05:03;16.33;;;7.27;;
21630;SDS011;10977;46.802;11.952;2022-12-07T02:07:31;8.60;;;6.73;;
21630;SDS011;10977;46.802;11.952;2022-12-07T02:10:11;10.20;;;7.20;;
21630;SDS011;10977;46.802;11.952;2022-12-07T02:12:43;10.90;;;6.50;;
21630;SDS011;10977;46.802;11.952;2022-12-07T02:15:11;89.87;;;8.47;;
21630;SDS011;10977;46.802;11.952;2022-12-07T02:17:41;57.93;;;8.43;;
21630;SDS011;10977;46.802;11.952;2022-12-07T02:31:37;9.00;;;6.30;;
21630;SDS011;10977;46.802;11.952;2022-12-07T02:34:32;10.30;;;7.50;;
21630;SDS011;10977;46.802;11.952;2022-12-07T02:40:02;9.17;;;6.90;;
21630;SDS011;10977;46.802;11.952;2022-12-07T02:42:36;9.47;;;6.60;;
21630;SDS011;10977;46.802;11.952;2022-12-07T02:45:06;10.43;;;7.50;;
21630;SDS011;10977;46.802;11.952;2022-12-07T02:47:33;10.47;;;7.60;;
21630;SDS011;10977;46.802;11.952;2022-12-07T02:50:02;8.97;;;7.00;;
21630;SDS011;10977;46.802;11.952;2022-12-07T02:52:30;8.03;;;6.03;;
21630;SDS011;10977;46.802;11.952;2022-12-07T02:54:55;9.13;;;6.20;;
21630;SDS011;10977;46.802;11.952;2022-12-07T02:57:25;9.70;;;5.87;;
21630;SDS011;10977;46.802;11.952;2022-12-07T03:00:08;7.17;;;5.73;;
21630;SDS011;10977;46.802;11.952;2022-12-07T03:02:58;9.53;;;5.50;;
21630;SDS011;10977;46.802;11.952;2022-12-07T03:08:30;8.07;;;6.53;;
21630;SDS011;10977;46.802;11.952;2022-12-07T03:11:08;9.93;;;6.90;;
21630;SDS011;10977;46.802;11.952;2022-12-07T03:18:53;9.03;;;6.40;;
21630;SDS011;10977;46.802;11.952;2022-12-07T03:21:21;8.53;;;5.73;;
21630;SDS011;10977;46.802;11.952;2022-12-07T03:23:51;10.60;;;6.57;;
21630;SDS011;10977;46.802;11.952;2022-12-07T03:26:21;11.43;;;7.07;;
21630;SDS011;10977;46.802;11.952;2022-12-07T03:28:54;14.47;;;6.20;;
21630;SDS011;10977;46.802;11.952;2022-12-07T03:31:28;12.02;;;6.70;;
21630;SDS011;10977;46.802;11.952;2022-12-07T03:34:07;188.33;;;9.37;;
21630;SDS011;10977;46.802;11.952;2022-12-07T03:39:50;50.50;;;8.03;;
21630;SDS011;10977;46.802;11.952;2022-12-07T03:42:34;35.80;;;19.73;;
21630;SDS011;10977;46.802;11.952;2022-12-07T03:45:00;16.23;;;10.33;;
21630;SDS011;10977;46.802;11.952;2022-12-07T03:50:19;22.23;;;8.60;;
21630;SDS011;10977;46.802;11.952;2022-12-07T03:52:58;11.90;;;7.80;;
21630;SDS011;10977;46.802;11.952;2022-12-07T03:55:31;12.37;;;7.90;;
21630;SDS011;10977;46.802;11.952;2022-12-07T03:58:02;13.80;;;8.43;;
21630;SDS011;10977;46.802;11.952;2022-12-07T04:00:31;17.03;;;8.37;;
21630;SDS011;10977;46.802;11.952;2022-12-07T04:02:57;13.67;;;8.43;;
21630;SDS011;10977;46.802;11.952;2022-12-07T04:05:23;14.10;;;7.97;;
21630;SDS011;10977;46.802;11.952;2022-12-07T04:07:48;31.17;;;7.80;;
21630;SDS011;10977;46.802;11.952;2022-12-07T04:10:14;69.10;;;8.07;;
21630;SDS011;10977;46.802;11.952;2022-12-07T04:12:39;62.00;;;8.43;;
21630;SDS011;10977;46.802;11.952;2022-12-07T04:15:05;9.23;;;7.13;;
21630;SDS011;10977;46.802;11.952;2022-12-07T04:17:31;36.07;;;8.43;;
21630;SDS011;10977;46.802;11.952;2022-12-07T04:19:57;35.00;;;7.93;;
21630;SDS011;10977;46.802;11.952;2022-12-07T04:22:22;78.40;;;8.17;;
21630;SDS011;10977;46.802;11.952;2022-12-07T04:24:48;13.67;;;7.47;;
21630;SDS011;10977;46.802;11.952;2022-12-07T04:27:13;16.17;;;10.33;;
21630;SDS011;10977;46.802;11.952;2022-12-07T04:29:38;54.00;;;31.23;;
21630;SDS011;10977;46.802;11.952;2022-12-07T04:32:04;14.93;;;9.77;;
21630;SDS011;10977;46.802;11.952;2022-12-07T04:34:29;14.97;;;8.90;;
21630;SDS011;10977;46.802;11.952;2022-12-07T04:36:55;15.80;;;9.90;;
21630;SDS011;10977;46.802;11.952;2022-12-07T04:39:24;15.37;;;9.23;;
21630;SDS011;10977;46.802;11.952;2022-12-07T04:41:51;15.50;;;8.37;;
21630;SDS011;10977;46.802;11.952;2022-12-07T04:44:16;14.03;;;9.40;;
21630;SDS011;10977;46.802;11.952;2022-12-07T04:46:42;13.00;;;8.90;;
21630;SDS011;10977;46.802;11.952;2022-12-07T04:49:08;18.57;;;8.30;;
21630;SDS011;10977;46.802;11.952;2022-12-07T04:51:34;12.27;;;7.97;;
21630;SDS011;10977;46.802;11.952;2022-12-07T04:54:00;41.37;;;23.80;;
21630;SDS011;10977;46.802;11.952;2022-12-07T04:56:25;14.97;;;8.77;;
21630;SDS011;10977;46.802;11.952;2022-12-07T04:58:51;47.30;;;10.40;;
21630;SDS011;10977;46.802;11.952;2022-12-07T05:01:18;13.53;;;8.10;;
21630;SDS011;10977;46.802;11.952;2022-12-07T05:03:44;18.87;;;8.97;;
21630;SDS011;10977;46.802;11.952;2022-12-07T05:06:10;49.53;;;8.93;;
21630;SDS011;10977;46.802;11.952;2022-12-07T05:08:36;25.30;;;8.73;;
21630;SDS011;10977;46.802;11.952;2022-12-07T05:11:02;119.50;;;12.70;;
21630;SDS011;10977;46.802;11.952;2022-12-07T05:13:28;142.97;;;9.73;;
21630;SDS011;10977;46.802;11.952;2022-12-07T05:15:53;125.97;;;11.07;;
21630;SDS011;10977;46.802;11.952;2022-12-07T05:18:19;39.80;;;12.27;;
21630;SDS011;10977;46.802;11.952;2022-12-07T05:20:44;35.90;;;9.20;;
21630;SDS011;10977;46.802;11.952;2022-12-07T05:23:10;45.40;;;8.70;;
21630;SDS011;10977;46.802;11.952;2022-12-07T05:25:36;10.33;;;7.23;;
21630;SDS011;10977;46.802;11.952;2022-12-07T05:28:02;24.43;;;7.60;;
21630;SDS011;10977;46.802;11.952;2022-12-07T05:30:28;10.77;;;7.97;;
21630;SDS011;10977;46.802;11.952;2022-12-07T05:32:54;27.40;;;8.57;;
21630;SDS011;10977;46.802;11.952;2022-12-07T05:35:20;11.33;;;7.60;;
21630;SDS011;10977;46.802;11.952;2022-12-07T05:37:45;12.80;;;8.07;;
21630;SDS011;10977;46.802;11.952;2022-12-07T05:40:11;12.77;;;7.87;;
21630;SDS011;10977;46.802;11.952;2022-12-07T05:42:38;14.37;;;7.97;;
21630;SDS011;10977;46.802;11.952;2022-12-07T05:45:03;13.13;;;7.33;;
21630;SDS011;10977;46.802;11.952;2022-12-07T05:47:29;16.80;;;7.43;;
21630;SDS011;10977;46.802;11.952;2022-12-07T05:49:55;18.87;;;8.07;;
21630;SDS011;10977;46.802;11.952;2022-12-07T05:52:20;12.47;;;7.43;;
21630;SDS011;10977;46.802;11.952;2022-12-07T05:54:47;20.40;;;8.03;;
21630;SDS011;10977;46.802;11.952;2022-12-07T05:57:13;16.27;;;7.97;;
21630;SDS011;10977;46.802;11.952;2022-12-07T05:59:38;38.60;;;9.50;;
21630;SDS011;10977;46.802;11.952;2022-12-07T06:02:05;30.57;;;8.63;;
21630;SDS011;10977;46.802;11.952;2022-12-07T06:04:33;11.07;;;7.70;;
21630;SDS011;10977;46.802;11.952;2022-12-07T06:07:00;44.27;;;8.87;;
21630;SDS011;10977;46.802;11.952;2022-12-07T06:09:27;20.63;;;8.17;;
21630;SDS011;10977;46.802;11.952;2022-12-07T06:11:53;10.60;;;7.40;;
21630;SDS011;10977;46.802;11.952;2022-12-07T06:14:37;32.87;;;8.60;;
21630;SDS011;10977;46.802;11.952;2022-12-07T06:17:03;14.43;;;7.43;;
21630;SDS011;10977;46.802;11.952;2022-12-07T06:19:29;11.27;;;8.17;;
21630;SDS011;10977;46.802;11.952;2022-12-07T06:21:54;14.10;;;8.27;;
21630;SDS011;10977;46.802;11.952;2022-12-07T06:24:20;25.73;;;7.80;;
21630;SDS011;10977;46.802;11.952;2022-12-07T06:26:46;74.47;;;8.57;;
21630;SDS011;10977;46.802;11.952;2022-12-07T06:29:12;102.20;;;8.70;;
21630;SDS011;10977;46.802;11.952;2022-12-07T06:31:37;51.57;;;10.17;;
21630;SDS011;10977;46.802;11.952;2022-12-07T06:34:04;21.47;;;8.37;;
21630;SDS011;10977;46.802;11.952;2022-12-07T06:36:32;28.73;;;9.00;;
21630;SDS011;10977;46.802;11.952;2022-12-07T06:38:57;25.87;;;8.13;;
21630;SDS011;10977;46.802;11.952;2022-12-07T06:41:23;49.73;;;8.60;;
21630;SDS011;10977;46.802;11.952;2022-12-07T06:43:49;15.57;;;7.93;;
21630;SDS011;10977;46.802;11.952;2022-12-07T06:46:15;41.17;;;10.13;;
21630;SDS011;10977;46.802;11.952;2022-12-07T06:48:41;30.63;;;10.40;;
21630;SDS011;10977;46.802;11.952;2022-12-07T06:51:07;53.53;;;11.77;;
21630;SDS011;10977;46.802;11.952;2022-12-07T06:53:33;30.80;;;11.83;;
21630;SDS011;10977;46.802;11.952;2022-12-07T06:55:58;61.10;;;9.77;;
21630;SDS011;10977;46.802;11.952;2022-12-07T06:58:24;14.57;;;10.17;;
21630;SDS011;10977;46.802;11.952;2022-12-07T07:00:49;12.90;;;9.10;;
21630;SDS011;10977;46.802;11.952;2022-12-07T07:03:15;27.63;;;11.30;;
21630;SDS011;10977;46.802;11.952;2022-12-07T07:05:41;15.27;;;9.67;;
21630;SDS011;10977;46.802;11.952;2022-12-07T07:08:06;21.07;;;10.13;;
21630;SDS011;10977;46.802;11.952;2022-12-07T07:10:32;12.77;;;9.33;;
21630;SDS011;10977;46.802;11.952;2022-12-07T07:12:57;14.57;;;8.83;;
21630;SDS011;10977;46.802;11.952;2022-12-07T07:15:22;14.13;;;9.07;;
21630;SDS011;10977;46.802;11.952;2022-12-07T07:17:48;13.33;;;8.50;;
21630;SDS011;10977;46.802;11.952;2022-12-07T07:20:13;16.87;;;9.17;;
21630;SDS011;10977;46.802;11.952;2022-12-07T07:22:39;14.07;;;9.63;;
21630;SDS011;10977;46.802;11.952;2022-12-07T07:25:04;13.32;;;8.25;;
21630;SDS011;10977;46.802;11.952;2022-12-07T07:27:29;13.17;;;7.67;;
21630;SDS011;10977;46.802;11.952;2022-12-07T07:29:55;15.30;;;8.50;;
21630;SDS011;10977;46.802;11.952;2022-12-07T07:32:20;14.00;;;9.00;;
21630;SDS011;10977;46.802;11.952;2022-12-07T07:34:46;10.50;;;7.67;;
21630;SDS011;10977;46.802;11.952;2022-12-07T07:37:12;11.25;;;8.65;;
21630;SDS011;10977;46.802;11.952;2022-12-07T07:39:37;12.77;;;9.30;;
21630;SDS011;10977;46.802;11.952;2022-12-07T07:42:03;13.13;;;8.33;;
21630;SDS011;10977;46.802;11.952;2022-12-07T07:44:29;13.40;;;9.73;;
21630;SDS011;10977;46.802;11.952;2022-12-07T07:46:54;13.03;;;9.63;;
21630;SDS011;10977;46.802;11.952;2022-12-07T07:49:20;16.60;;;11.73;;
21630;SDS011;10977;46.802;11.952;2022-12-07T07:51:45;18.60;;;11.50;;
21630;SDS011;10977;46.802;11.952;2022-12-07T07:54:10;13.00;;;9.60;;
21630;SDS011;10977;46.802;11.952;2022-12-07T07:56:36;11.63;;;8.73;;
21630;SDS011;10977;46.802;11.952;2022-12-07T07:59:01;13.88;;;9.23;;
21630;SDS011;10977;46.802;11.952;2022-12-07T08:01:27;12.00;;;8.10;;
21630;SDS011;10977;46.802;11.952;2022-12-07T08:03:52;12.50;;;8.53;;
21630;SDS011;10977;46.802;11.952;2022-12-07T08:06:17;15.00;;;10.33;;
21630;SDS011;10977;46.802;11.952;2022-12-07T08:08:43;14.52;;;10.13;;
21630;SDS011;10977;46.802;11.952;2022-12-07T08:11:08;16.67;;;11.38;;
21630;SDS011;10977;46.802;11.952;2022-12-07T08:13:34;17.02;;;13.05;;
21630;SDS011;10977;46.802;11.952;2022-12-07T08:16:04;21.73;;;12.48;;
21630;SDS011;10977;46.802;11.952;2022-12-07T08:18:34;16.87;;;12.57;;
21630;SDS011;10977;46.802;11.952;2022-12-07T08:21:00;15.87;;;11.00;;
21630;SDS011;10977;46.802;11.952;2022-12-07T08:23:26;15.63;;;10.32;;
21630;SDS011;10977;46.802;11.952;2022-12-07T08:25:51;14.73;;;10.55;;
21630;SDS011;10977;46.802;11.952;2022-12-07T08:28:17;13.13;;;10.07;;
21630;SDS011;10977;46.802;11.952;2022-12-07T08:30:42;14.48;;;9.43;;
21630;SDS011;10977;46.802;11.952;2022-12-07T08:33:08;16.27;;;9.27;;
21630;SDS011;10977;46.802;11.952;2022-12-07T08:35:35;15.80;;;9.23;;
21630;SDS011;10977;46.802;11.952;2022-12-07T08:38:00;15.38;;;9.25;;
21630;SDS011;10977;46.802;11.952;2022-12-07T08:40:27;13.57;;;8.93;;
21630;SDS011;10977;46.802;11.952;2022-12-07T08:42:52;11.80;;;8.18;;
21630;SDS011;10977;46.802;11.952;2022-12-07T08:45:18;10.25;;;7.75;;
21630;SDS011;10977;46.802;11.952;2022-12-07T08:47:50;10.52;;;8.23;;
21630;SDS011;10977;46.802;11.952;2022-12-07T08:50:20;11.68;;;8.50;;
21630;SDS011;10977;46.802;11.952;2022-12-07T08:52:48;11.48;;;8.25;;
21630;SDS011;10977;46.802;11.952;2022-12-07T08:55:15;11.00;;;8.13;;
21630;SDS011;10977;46.802;11.952;2022-12-07T08:57:41;12.38;;;8.23;;
21630;SDS011;10977;46.802;11.952;2022-12-07T09:00:07;9.10;;;6.95;;
21630;SDS011;10977;46.802;11.952;2022-12-07T09:02:34;8.95;;;6.65;;
21630;SDS011;10977;46.802;11.952;2022-12-07T09:04:59;10.25;;;6.70;;
21630;SDS011;10977;46.802;11.952;2022-12-07T09:07:24;8.88;;;7.25;;
21630;SDS011;10977;46.802;11.952;2022-12-07T09:09:51;7.15;;;5.72;;
21630;SDS011;10977;46.802;11.952;2022-12-07T09:12:16;9.80;;;6.28;;
21630;SDS011;10977;46.802;11.952;2022-12-07T09:14:41;7.03;;;5.90;;
21630;SDS011;10977;46.802;11.952;2022-12-07T09:17:11;8.70;;;6.13;;
21630;SDS011;10977;46.802;11.952;2022-12-07T09:19:37;8.02;;;6.50;;
21630;SDS011;10977;46.802;11.952;2022-12-07T09:22:03;7.60;;;5.95;;
21630;SDS011;10977;46.802;11.952;2022-12-07T09:24:30;8.25;;;5.90;;
21630;SDS011;10977;46.802;11.952;2022-12-07T09:26:56;8.13;;;6.10;;
21630;SDS011;10977;46.802;11.952;2022-12-07T09:29:22;7.82;;;5.50;;
21630;SDS011;10977;46.802;11.952;2022-12-07T09:31:47;8.35;;;6.05;;
21630;SDS011;10977;46.802;11.952;2022-12-07T09:34:12;7.70;;;5.15;;
21630;SDS011;10977;46.802;11.952;2022-12-07T09:36:38;8.68;;;5.30;;
21630;SDS011;10977;46.802;11.952;2022-12-07T09:39:03;11.70;;;6.00;;
21630;SDS011;10977;46.802;11.952;2022-12-07T09:41:30;9.88;;;5.75;;
21630;SDS011;10977;46.802;11.952;2022-12-07T09:43:59;7.13;;;5.68;;
21630;SDS011;10977;46.802;11.952;2022-12-07T09:46:29;9.52;;;5.30;;
21630;SDS011;10977;46.802;11.952;2022-12-07T09:49:04;8.70;;;5.13;;
21630;SDS011;10977;46.802;11.952;2022-12-07T09:51:30;6.95;;;5.07;;
21630;SDS011;10977;46.802;11.952;2022-12-07T09:53:57;6.15;;;4.20;;
21630;SDS011;10977;46.802;11.952;2022-12-07T09:56:23;5.50;;;3.88;;
21630;SDS011;10977;46.802;11.952;2022-12-07T09:58:49;10.45;;;3.92;;
21630;SDS011;10977;46.802;11.952;2022-12-07T10:01:17;4.28;;;3.70;;
21630;SDS011;10977;46.802;11.952;2022-12-07T10:06:15;7.40;;;4.47;;
21630;SDS011;10977;46.802;11.952;2022-12-07T10:08:41;9.13;;;4.43;;
21630;SDS011;10977;46.802;11.952;2022-12-07T10:11:08;7.90;;;4.50;;
21630;SDS011;10977;46.802;11.952;2022-12-07T10:24:35;6.38;;;4.90;;
21630;SDS011;10977;46.802;11.952;2022-12-07T10:27:02;7.75;;;4.97;;
21630;SDS011;10977;46.802;11.952;2022-12-07T10:34:25;4.85;;;4.35;;
21630;SDS011;10977;46.802;11.952;2022-12-07T10:36:54;5.60;;;4.55;;
21630;SDS011;10977;46.802;11.952;2022-12-07T10:39:48;5.38;;;4.28;;
21630;SDS011;10977;46.802;11.952;2022-12-07T10:42:28;6.75;;;3.63;;
21630;SDS011;10977;46.802;11.952;2022-12-07T10:45:14;3.95;;;3.55;;
21630;SDS011;10977;46.802;11.952;2022-12-07T10:58:45;5.50;;;4.00;;
21630;SDS011;10977;46.802;11.952;2022-12-07T11:12:51;11.05;;;4.13;;
21630;SDS011;10977;46.802;11.952;2022-12-07T11:18:14;5.95;;;3.95;;
21630;SDS011;10977;46.802;11.952;2022-12-07T11:36:59;10.55;;;3.30;;
21630;SDS011;10977;46.802;11.952;2022-12-07T11:39:33;6.38;;;2.90;;
21630;SDS011;10977;46.802;11.952;2022-12-07T11:42:15;2.92;;;2.63;;
21630;SDS011;10977;46.802;11.952;2022-12-07T11:44:55;7.93;;;2.72;;
21630;SDS011;10977;46.802;11.952;2022-12-07T11:47:47;2.60;;;2.28;;
21630;SDS011;10977;46.802;11.952;2022-12-07T11:53:09;2.75;;;2.50;;
21630;SDS011;10977;46.802;11.952;2022-12-07T12:01:11;4.22;;;2.75;;
21630;SDS011;10977;46.802;11.952;2022-12-07T12:04:00;3.80;;;2.47;;
21630;SDS011;10977;46.802;11.952;2022-12-07T12:06:27;3.75;;;3.15;;
21630;SDS011;10977;46.802;11.952;2022-12-07T12:09:01;3.72;;;3.08;;
21630;SDS011;10977;46.802;11.952;2022-12-07T12:11:59;3.38;;;2.50;;
21630;SDS011;10977;46.802;11.952;2022-12-07T12:20:06;4.07;;;2.40;;
21630;SDS011;10977;46.802;11.952;2022-12-07T12:22:46;3.40;;;3.10;;
21630;SDS011;10977;46.802;11.952;2022-12-07T12:25:26;4.97;;;3.58;;
21630;SDS011;10977;46.802;11.952;2022-12-07T12:27:55;3.75;;;3.33;;
21630;SDS011;10977;46.802;11.952;2022-12-07T12:30:24;3.92;;;3.13;;
21630;SDS011;10977;46.802;11.952;2022-12-07T12:32:51;3.97;;;3.50;;
21630;SDS011;10977;46.802;11.952;2022-12-07T12:37:52;6.78;;;3.80;;
21630;SDS011;10977;46.802;11.952;2022-12-07T12:42:56;6.55;;;3.80;;
21630;SDS011;10977;46.802;11.952;2022-12-07T12:45:22;5.85;;;4.40;;
21630;SDS011;10977;46.802;11.952;2022-12-07T12:53:03;6.07;;;4.20;;
21630;SDS011;10977;46.802;11.952;2022-12-07T12:58:22;6.65;;;4.55;;
21630;SDS011;10977;46.802;11.952;2022-12-07T13:15:51;7.93;;;4.60;;
21630;SDS011;10977;46.802;11.952;2022-12-07T13:20:53;5.90;;;3.95;;
21630;SDS011;10977;46.802;11.952;2022-12-07T13:23:22;5.57;;;3.90;;
21630;SDS011;10977;46.802;11.952;2022-12-07T13:25:54;4.88;;;3.45;;
21630;SDS011;10977;46.802;11.952;2022-12-07T13:28:27;5.28;;;3.47;;
21630;SDS011;10977;46.802;11.952;2022-12-07T13:31:03;9.07;;;4.10;;
21630;SDS011;10977;46.802;11.952;2022-12-07T13:33:29;5.07;;;3.53;;
21630;SDS011;10977;46.802;11.952;2022-12-07T13:35:55;6.13;;;3.35;;
21630;SDS011;10977;46.802;11.952;2022-12-07T13:38:26;6.47;;;3.60;;
21630;SDS011;10977;46.802;11.952;2022-12-07T13:41:03;4.13;;;3.30;;
21630;SDS011;10977;46.802;11.952;2022-12-07T13:43:47;4.68;;;3.40;;
21630;SDS011;10977;46.802;11.952;2022-12-07T13:49:27;4.80;;;3.40;;
21630;SDS011;10977;46.802;11.952;2022-12-07T13:57:30;6.95;;;3.63;;
21630;SDS011;10977;46.802;11.952;2022-12-07T14:00:03;4.68;;;3.42;;
21630;SDS011;10977;46.802;11.952;2022-12-07T14:02:31;5.30;;;3.65;;
21630;SDS011;10977;46.802;11.952;2022-12-07T14:05:09;5.82;;;4.25;;
21630;SDS011;10977;46.802;11.952;2022-12-07T14:10:28;5.82;;;3.60;;
21630;SDS011;10977;46.802;11.952;2022-12-07T14:12:55;4.85;;;3.45;;
21630;SDS011;10977;46.802;11.952;2022-12-07T14:15:22;5.97;;;3.53;;
21630;SDS011;10977;46.802;11.952;2022-12-07T14:17:51;7.38;;;3.83;;
21630;SDS011;10977;46.802;11.952;2022-12-07T14:23:05;7.20;;;3.70;;
21630;SDS011;10977;46.802;11.952;2022-12-07T14:25:47;5.47;;;3.53;;
21630;SDS011;10977;46.802;11.952;2022-12-07T14:28:28;7.60;;;3.83;;
21630;SDS011;10977;46.802;11.952;2022-12-07T14:30:55;10.68;;;4.28;;
21630;SDS011;10977;46.802;11.952;2022-12-07T14:33:21;4.15;;;2.90;;
21630;SDS011;10977;46.802;11.952;2022-12-07T14:35:47;7.70;;;4.40;;
21630;SDS011;10977;46.802;11.952;2022-12-07T14:38:12;21.80;;;10.65;;
21630;SDS011;10977;46.802;11.952;2022-12-07T14:40:37;16.13;;;7.97;;
21630;SDS011;10977;46.802;11.952;2022-12-07T14:43:10;11.02;;;5.65;;
21630;SDS011;10977;46.802;11.952;2022-12-07T14:45:39;10.55;;;4.22;;
21630;SDS011;10977;46.802;11.952;2022-12-07T14:48:05;8.10;;;4.00;;
21630;SDS011;10977;46.802;11.952;2022-12-07T14:50:34;9.70;;;3.58;;
21630;SDS011;10977;46.802;11.952;2022-12-07T14:53:06;4.82;;;3.53;;
21630;SDS011;10977;46.802;11.952;2022-12-07T14:55:40;8.13;;;4.45;;
21630;SDS011;10977;46.802;11.952;2022-12-07T14:58:07;8.35;;;5.10;;
21630;SDS011;10977;46.802;11.952;2022-12-07T15:00:38;9.48;;;5.10;;
21630;SDS011;10977;46.802;11.952;2022-12-07T15:03:03;10.15;;;5.53;;
21630;SDS011;10977;46.802;11.952;2022-12-07T15:05:29;8.55;;;5.68;;
21630;SDS011;10977;46.802;11.952;2022-12-07T15:07:54;6.22;;;4.05;;
21630;SDS011;10977;46.802;11.952;2022-12-07T15:10:21;10.10;;;4.40;;
21630;SDS011;10977;46.802;11.952;2022-12-07T15:12:54;10.05;;;4.65;;
21630;SDS011;10977;46.802;11.952;2022-12-07T15:15:40;7.82;;;4.80;;
21630;SDS011;10977;46.802;11.952;2022-12-07T15:18:06;7.75;;;5.85;;
21630;SDS011;10977;46.802;11.952;2022-12-07T15:20:31;11.95;;;7.15;;
21630;SDS011;10977;46.802;11.952;2022-12-07T15:22:56;8.80;;;4.85;;
21630;SDS011;10977;46.802;11.952;2022-12-07T15:25:22;11.30;;;4.50;;
21630;SDS011;10977;46.802;11.952;2022-12-07T15:27:47;7.35;;;4.72;;
21630;SDS011;10977;46.802;11.952;2022-12-07T15:30:12;6.72;;;4.45;;
21630;SDS011;10977;46.802;11.952;2022-12-07T15:32:38;7.80;;;4.18;;
21630;SDS011;10977;46.802;11.952;2022-12-07T15:35:03;8.52;;;3.47;;
21630;SDS011;10977;46.802;11.952;2022-12-07T15:37:29;6.47;;;3.42;;
21630;SDS011;10977;46.802;11.952;2022-12-07T15:39:54;11.57;;;4.20;;
21630;SDS011;10977;46.802;11.952;2022-12-07T15:42:19;7.60;;;4.90;;
21630;SDS011;10977;46.802;11.952;2022-12-07T15:44:45;9.35;;;3.83;;
21630;SDS011;10977;46.802;11.952;2022-12-07T15:47:29;5.20;;;3.10;;
21630;SDS011;10977;46.802;11.952;2022-12-07T15:50:06;6.78;;;3.83;;
21630;SDS011;10977;46.802;11.952;2022-12-07T15:52:34;10.15;;;3.70;;
21630;SDS011;10977;46.802;11.952;2022-12-07T15:55:00;10.40;;;3.83;;
21630;SDS011;10977;46.802;11.952;2022-12-07T15:57:27;10.20;;;3.25;;
21630;SDS011;10977;46.802;11.952;2022-12-07T15:59:53;6.13;;;4.22;;
21630;SDS011;10977;46.802;11.952;2022-12-07T16:02:18;6.65;;;5.00;;
21630;SDS011;10977;46.802;11.952;2022-12-07T16:04:44;17.23;;;8.27;;
21630;SDS011;10977;46.802;11.952;2022-12-07T16:07:10;14.15;;;6.88;;
21630;SDS011;10977;46.802;11.952;2022-12-07T16:09:36;8.77;;;5.43;;
21630;SDS011;10977;46.802;11.952;2022-12-07T16:12:02;7.80;;;4.50;;
21630;SDS011;10977;46.802;11.952;2022-12-07T16:14:27;14.90;;;4.35;;
21630;SDS011;10977;46.802;11.952;2022-12-07T16:16:53;8.15;;;4.20;;
21630;SDS011;10977;46.802;11.952;2022-12-07T16:19:18;12.63;;;4.63;;
21630;SDS011;10977;46.802;11.952;2022-12-07T16:21:44;7.25;;;4.65;;
21630;SDS011;10977;46.802;11.952;2022-12-07T16:24:09;7.20;;;4.50;;
21630;SDS011;10977;46.802;11.952;2022-12-07T16:26:35;8.15;;;5.30;;
21630;SDS011;10977;46.802;11.952;2022-12-07T16:29:00;6.32;;;4.45;;
21630;SDS011;10977;46.802;11.952;2022-12-07T16:31:27;8.40;;;5.55;;
21630;SDS011;10977;46.802;11.952;2022-12-07T16:33:54;9.70;;;5.07;;
21630;SDS011;10977;46.802;11.952;2022-12-07T16:36:21;14.77;;;5.13;;
21630;SDS011;10977;46.802;11.952;2022-12-07T16:38:49;9.98;;;5.97;;
21630;SDS011;10977;46.802;11.952;2022-12-07T16:41:14;8.27;;;6.00;;
21630;SDS011;10977;46.802;11.952;2022-12-07T16:43:40;10.40;;;5.50;;
21630;SDS011;10977;46.802;11.952;2022-12-07T16:46:05;12.05;;;6.90;;
21630;SDS011;10977;46.802;11.952;2022-12-07T16:48:31;18.98;;;9.40;;
21630;SDS011;10977;46.802;11.952;2022-12-07T16:51:02;16.02;;;7.70;;
21630;SDS011;10977;46.802;11.952;2022-12-07T16:53:29;13.02;;;8.55;;
21630;SDS011;10977;46.802;11.952;2022-12-07T16:55:54;18.38;;;11.48;;
21630;SDS011;10977;46.802;11.952;2022-12-07T16:58:20;18.85;;;13.65;;
21630;SDS011;10977;46.802;11.952;2022-12-07T17:00:45;18.52;;;11.50;;
21630;SDS011;10977;46.802;11.952;2022-12-07T17:03:10;16.98;;;11.00;;